sensor_id;sensor_type;location;lat;lon;timestamp;P1;durP1;ratioP1;P2;durP2;ratioP2
68854;SDS011;55859;55.710;12.464;2022-08-11T00:00:37;1.65;;;1.50;;
68854;SDS011;55859;55.710;12.464;2022-08-11T00:03:07;2.45;;;2.05;;
68854;SDS011;55859;55.710;12.464;2022-08-11T00:05:43;2.72;;;1.83;;
68854;SDS011;55859;55.710;12.464;2022-08-11T00:08:10;2.15;;;1.95;;
68854;SDS011;55859;55.710;12.464;2022-08-11T00:10:50;2.33;;;2.13;;
68854;SDS011;55859;55.710;12.464;2022-08-11T00:13:21;2.28;;;1.90;;
68854;SDS011;55859;55.710;12.464;2022-08-11T00:15:55;2.45;;;2.08;;
68854;SDS011;55859;55.710;12.464;2022-08-11T00:18:20;3.92;;;2.03;;
68854;SDS011;55859;55.710;12.464;2022-08-11T00:20:46;3.70;;;2.33;;
68854;SDS011;55859;55.710;12.464;2022-08-11T00:23:13;2.17;;;2.05;;
68854;SDS011;55859;55.710;12.464;2022-08-11T00:25:43;4.45;;;2.20;;
68854;SDS011;55859;55.710;12.464;2022-08-11T00:28:29;2.22;;;2.08;;
68854;SDS011;55859;55.710;12.464;2022-08-11T00:30:58;2.50;;;2.25;;
68854;SDS011;55859;55.710;12.464;2022-08-11T00:36:04;2.17;;;1.98;;
68854;SDS011;55859;55.710;12.464;2022-08-11T00:38:32;4.20;;;2.00;;
68854;SDS011;55859;55.710;12.464;2022-08-11T00:41:19;2.47;;;2.13;;
68854;SDS011;55859;55.710;12.464;2022-08-11T01:00:45;3.03;;;2.00;;
68854;SDS011;55859;55.710;12.464;2022-08-11T01:03:34;2.25;;;2.10;;
68854;SDS011;55859;55.710;12.464;2022-08-11T01:06:37;5.28;;;2.20;;
68854;SDS011;55859;55.710;12.464;2022-08-11T01:12:19;5.95;;;2.25;;
68854;SDS011;55859;55.710;12.464;2022-08-11T01:31:10;2.42;;;2.22;;
68854;SDS011;55859;55.710;12.464;2022-08-11T01:36:46;5.03;;;2.40;;
68854;SDS011;55859;55.710;12.464;2022-08-11T01:42:38;2.15;;;2.05;;
68854;SDS011;55859;55.710;12.464;2022-08-11T01:45:54;2.80;;;2.60;;
68854;SDS011;55859;55.710;12.464;2022-08-11T01:54:36;4.47;;;2.70;;
68854;SDS011;55859;55.710;12.464;2022-08-11T01:59:50;2.45;;;2.25;;
68854;SDS011;55859;55.710;12.464;2022-08-11T02:22:05;2.85;;;2.33;;
68854;SDS011;55859;55.710;12.464;2022-08-11T02:25:02;2.55;;;2.35;;
68854;SDS011;55859;55.710;12.464;2022-08-11T02:27:35;2.55;;;2.10;;
68854;SDS011;55859;55.710;12.464;2022-08-11T02:30:10;2.30;;;2.13;;
68854;SDS011;55859;55.710;12.464;2022-08-11T02:33:07;6.00;;;2.75;;
68854;SDS011;55859;55.710;12.464;2022-08-11T02:49:49;5.63;;;2.30;;
68854;SDS011;55859;55.710;12.464;2022-08-11T02:52:35;2.53;;;2.17;;
68854;SDS011;55859;55.710;12.464;2022-08-11T02:58:40;2.33;;;2.22;;
68854;SDS011;55859;55.710;12.464;2022-08-11T03:01:40;4.03;;;2.08;;
68854;SDS011;55859;55.710;12.464;2022-08-11T03:04:24;2.78;;;2.55;;
68854;SDS011;55859;55.710;12.464;2022-08-11T03:07:00;3.35;;;2.70;;
68854;SDS011;55859;55.710;12.464;2022-08-11T03:12:18;3.90;;;2.35;;
68854;SDS011;55859;55.710;12.464;2022-08-11T03:15:11;5.03;;;3.20;;
68854;SDS011;55859;55.710;12.464;2022-08-11T03:20:58;2.55;;;2.35;;
68854;SDS011;55859;55.710;12.464;2022-08-11T03:23:47;2.45;;;2.33;;
68854;SDS011;55859;55.710;12.464;2022-08-11T03:28:52;4.27;;;2.83;;
68854;SDS011;55859;55.710;12.464;2022-08-11T03:34:32;3.08;;;2.83;;
68854;SDS011;55859;55.710;12.464;2022-08-11T03:37:45;4.10;;;2.45;;
68854;SDS011;55859;55.710;12.464;2022-08-11T03:40:18;5.15;;;2.70;;
68854;SDS011;55859;55.710;12.464;2022-08-11T03:46:25;3.08;;;2.58;;
68854;SDS011;55859;55.710;12.464;2022-08-11T03:49:16;2.33;;;2.13;;
68854;SDS011;55859;55.710;12.464;2022-08-11T03:52:07;4.72;;;2.92;;
68854;SDS011;55859;55.710;12.464;2022-08-11T03:57:54;2.95;;;2.63;;
68854;SDS011;55859;55.710;12.464;2022-08-11T04:00:49;3.17;;;2.58;;
68854;SDS011;55859;55.710;12.464;2022-08-11T04:09:10;2.90;;;2.53;;
68854;SDS011;55859;55.710;12.464;2022-08-11T04:26:20;2.92;;;2.58;;
68854;SDS011;55859;55.710;12.464;2022-08-11T04:28:58;2.33;;;2.13;;
68854;SDS011;55859;55.710;12.464;2022-08-11T04:31:33;4.00;;;2.75;;
68854;SDS011;55859;55.710;12.464;2022-08-11T04:57:42;3.97;;;3.05;;
68854;SDS011;55859;55.710;12.464;2022-08-11T05:00:40;8.70;;;3.55;;
68854;SDS011;55859;55.710;12.464;2022-08-11T05:04:06;6.80;;;4.30;;
68854;SDS011;55859;55.710;12.464;2022-08-11T05:13:27;7.85;;;4.88;;
68854;SDS011;55859;55.710;12.464;2022-08-11T05:16:14;6.90;;;3.80;;
68854;SDS011;55859;55.710;12.464;2022-08-11T05:19:02;4.82;;;3.35;;
68854;SDS011;55859;55.710;12.464;2022-08-11T05:21:50;6.47;;;3.90;;
68854;SDS011;55859;55.710;12.464;2022-08-11T05:24:42;11.43;;;3.67;;
68854;SDS011;55859;55.710;12.464;2022-08-11T05:27:39;8.02;;;3.47;;
68854;SDS011;55859;55.710;12.464;2022-08-11T05:30:45;6.45;;;3.40;;
68854;SDS011;55859;55.710;12.464;2022-08-11T05:33:33;4.85;;;3.13;;
68854;SDS011;55859;55.710;12.464;2022-08-11T05:39:15;5.53;;;3.97;;
68854;SDS011;55859;55.710;12.464;2022-08-11T05:42:01;10.15;;;3.30;;
68854;SDS011;55859;55.710;12.464;2022-08-11T05:44:49;10.75;;;3.42;;
68854;SDS011;55859;55.710;12.464;2022-08-11T05:47:36;3.90;;;3.50;;
68854;SDS011;55859;55.710;12.464;2022-08-11T05:50:21;3.63;;;3.05;;
68854;SDS011;55859;55.710;12.464;2022-08-11T05:53:09;4.25;;;3.42;;
68854;SDS011;55859;55.710;12.464;2022-08-11T05:55:55;7.60;;;3.38;;
68854;SDS011;55859;55.710;12.464;2022-08-11T05:58:42;3.65;;;2.95;;
68854;SDS011;55859;55.710;12.464;2022-08-11T06:01:13;13.23;;;3.03;;
68854;SDS011;55859;55.710;12.464;2022-08-11T06:03:47;9.70;;;3.30;;
68854;SDS011;55859;55.710;12.464;2022-08-11T06:09:00;5.88;;;3.00;;
68854;SDS011;55859;55.710;12.464;2022-08-11T06:11:26;6.03;;;2.80;;
68854;SDS011;55859;55.710;12.464;2022-08-11T06:13:53;6.50;;;2.80;;
68854;SDS011;55859;55.710;12.464;2022-08-11T06:16:22;4.97;;;2.45;;
68854;SDS011;55859;55.710;12.464;2022-08-11T06:18:50;6.97;;;2.72;;
68854;SDS011;55859;55.710;12.464;2022-08-11T06:21:15;5.43;;;2.38;;
68854;SDS011;55859;55.710;12.464;2022-08-11T06:23:42;5.95;;;2.30;;
68854;SDS011;55859;55.710;12.464;2022-08-11T06:26:09;5.55;;;2.47;;
68854;SDS011;55859;55.710;12.464;2022-08-11T06:28:37;4.15;;;1.52;;
68854;SDS011;55859;55.710;12.464;2022-08-11T06:31:19;4.22;;;1.95;;
68854;SDS011;55859;55.710;12.464;2022-08-11T06:36:43;3.13;;;1.80;;
68854;SDS011;55859;55.710;12.464;2022-08-11T06:39:22;2.35;;;1.63;;
68854;SDS011;55859;55.710;12.464;2022-08-11T06:42:07;5.38;;;1.50;;
68854;SDS011;55859;55.710;12.464;2022-08-11T06:44:42;3.47;;;1.70;;
68854;SDS011;55859;55.710;12.464;2022-08-11T06:47:11;4.30;;;1.30;;
68854;SDS011;55859;55.710;12.464;2022-08-11T06:49:43;7.95;;;1.20;;
68854;SDS011;55859;55.710;12.464;2022-08-11T06:52:29;1.45;;;1.35;;
68854;SDS011;55859;55.710;12.464;2022-08-11T06:54:58;6.45;;;1.20;;
68854;SDS011;55859;55.710;12.464;2022-08-11T06:57:33;4.78;;;1.10;;
68854;SDS011;55859;55.710;12.464;2022-08-11T07:00:19;7.97;;;1.10;;
68854;SDS011;55859;55.710;12.464;2022-08-11T07:02:58;2.45;;;1.17;;
68854;SDS011;55859;55.710;12.464;2022-08-11T07:14:24;5.63;;;1.10;;
68854;SDS011;55859;55.710;12.464;2022-08-11T07:17:10;1.25;;;0.80;;
68854;SDS011;55859;55.710;12.464;2022-08-11T07:19:39;3.08;;;0.85;;
68854;SDS011;55859;55.710;12.464;2022-08-11T07:22:30;3.25;;;0.73;;
68854;SDS011;55859;55.710;12.464;2022-08-11T07:25:15;4.97;;;0.80;;
68854;SDS011;55859;55.710;12.464;2022-08-11T07:28:04;1.52;;;0.80;;
68854;SDS011;55859;55.710;12.464;2022-08-11T07:30:54;0.90;;;0.73;;
68854;SDS011;55859;55.710;12.464;2022-08-11T07:33:27;0.60;;;0.60;;
68854;SDS011;55859;55.710;12.464;2022-08-11T07:36:04;10.93;;;1.10;;
68854;SDS011;55859;55.710;12.464;2022-08-11T07:38:38;1.80;;;1.15;;
68854;SDS011;55859;55.710;12.464;2022-08-11T07:41:10;3.97;;;1.08;;
68854;SDS011;55859;55.710;12.464;2022-08-11T07:43:38;0.75;;;0.70;;
68854;SDS011;55859;55.710;12.464;2022-08-11T07:46:04;0.73;;;0.70;;
68854;SDS011;55859;55.710;12.464;2022-08-11T07:48:49;2.50;;;0.68;;
68854;SDS011;55859;55.710;12.464;2022-08-11T07:51:34;0.60;;;0.60;;
68854;SDS011;55859;55.710;12.464;2022-08-11T07:54:19;6.78;;;1.33;;
68854;SDS011;55859;55.710;12.464;2022-08-11T07:56:45;6.65;;;0.60;;
68854;SDS011;55859;55.710;12.464;2022-08-11T07:59:11;2.05;;;0.82;;
68854;SDS011;55859;55.710;12.464;2022-08-11T08:01:56;2.33;;;0.75;;
68854;SDS011;55859;55.710;12.464;2022-08-11T08:04:40;1.52;;;1.00;;
68854;SDS011;55859;55.710;12.464;2022-08-11T08:07:25;0.60;;;0.60;;
68854;SDS011;55859;55.710;12.464;2022-08-11T08:10:09;1.30;;;1.00;;
68854;SDS011;55859;55.710;12.464;2022-08-11T08:12:54;1.38;;;0.77;;
68854;SDS011;55859;55.710;12.464;2022-08-11T08:15:39;3.28;;;0.73;;
68854;SDS011;55859;55.710;12.464;2022-08-11T08:18:24;1.08;;;0.80;;
68854;SDS011;55859;55.710;12.464;2022-08-11T08:20:50;0.95;;;0.70;;
68854;SDS011;55859;55.710;12.464;2022-08-11T08:23:19;2.60;;;0.70;;
68854;SDS011;55859;55.710;12.464;2022-08-11T08:25:57;2.58;;;0.80;;
68854;SDS011;55859;55.710;12.464;2022-08-11T08:28:25;0.85;;;0.70;;
68854;SDS011;55859;55.710;12.464;2022-08-11T08:30:52;6.32;;;0.90;;
68854;SDS011;55859;55.710;12.464;2022-08-11T08:33:27;1.95;;;0.60;;
68854;SDS011;55859;55.710;12.464;2022-08-11T08:35:59;0.95;;;0.52;;
68854;SDS011;55859;55.710;12.464;2022-08-11T08:41:06;0.77;;;0.68;;
68854;SDS011;55859;55.710;12.464;2022-08-11T08:43:32;0.77;;;0.57;;
68854;SDS011;55859;55.710;12.464;2022-08-11T08:46:00;1.88;;;0.70;;
68854;SDS011;55859;55.710;12.464;2022-08-11T08:48:27;1.17;;;0.80;;
68854;SDS011;55859;55.710;12.464;2022-08-11T08:50:56;1.50;;;0.95;;
68854;SDS011;55859;55.710;12.464;2022-08-11T08:53:47;1.40;;;0.70;;
68854;SDS011;55859;55.710;12.464;2022-08-11T08:56:15;5.40;;;0.85;;
68854;SDS011;55859;55.710;12.464;2022-08-11T08:58:42;1.90;;;0.93;;
68854;SDS011;55859;55.710;12.464;2022-08-11T09:01:12;9.85;;;1.00;;
68854;SDS011;55859;55.710;12.464;2022-08-11T09:03:40;4.38;;;0.75;;
68854;SDS011;55859;55.710;12.464;2022-08-11T09:06:06;15.15;;;1.50;;
68854;SDS011;55859;55.710;12.464;2022-08-11T09:08:32;3.72;;;0.93;;
68854;SDS011;55859;55.710;12.464;2022-08-11T09:10:59;1.35;;;0.75;;
68854;SDS011;55859;55.710;12.464;2022-08-11T09:13:45;3.25;;;0.80;;
68854;SDS011;55859;55.710;12.464;2022-08-11T09:16:11;2.88;;;1.05;;
68854;SDS011;55859;55.710;12.464;2022-08-11T09:18:37;3.42;;;0.80;;
68854;SDS011;55859;55.710;12.464;2022-08-11T09:21:04;2.15;;;0.65;;
68854;SDS011;55859;55.710;12.464;2022-08-11T09:23:30;1.08;;;0.70;;
68854;SDS011;55859;55.710;12.464;2022-08-11T09:26:15;7.38;;;1.23;;
68854;SDS011;55859;55.710;12.464;2022-08-11T09:28:59;1.75;;;0.90;;
68854;SDS011;55859;55.710;12.464;2022-08-11T09:31:25;4.32;;;0.50;;
68854;SDS011;55859;55.710;12.464;2022-08-11T09:33:55;5.20;;;0.73;;
68854;SDS011;55859;55.710;12.464;2022-08-11T09:36:21;1.00;;;0.80;;
68854;SDS011;55859;55.710;12.464;2022-08-11T09:39:06;2.47;;;0.70;;
68854;SDS011;55859;55.710;12.464;2022-08-11T09:41:51;2.17;;;0.70;;
68854;SDS011;55859;55.710;12.464;2022-08-11T09:44:18;1.95;;;0.93;;
68854;SDS011;55859;55.710;12.464;2022-08-11T09:47:02;4.18;;;0.60;;
68854;SDS011;55859;55.710;12.464;2022-08-11T09:49:32;4.15;;;0.63;;
68854;SDS011;55859;55.710;12.464;2022-08-11T09:51:57;1.75;;;0.60;;
68854;SDS011;55859;55.710;12.464;2022-08-11T09:54:24;1.45;;;0.85;;
68854;SDS011;55859;55.710;12.464;2022-08-11T09:56:51;0.57;;;0.50;;
68854;SDS011;55859;55.710;12.464;2022-08-11T09:59:36;2.78;;;0.77;;
68854;SDS011;55859;55.710;12.464;2022-08-11T10:02:02;3.40;;;0.63;;
68854;SDS011;55859;55.710;12.464;2022-08-11T10:04:43;3.08;;;0.63;;
68854;SDS011;55859;55.710;12.464;2022-08-11T10:07:09;3.33;;;0.80;;
68854;SDS011;55859;55.710;12.464;2022-08-11T10:09:41;9.68;;;1.00;;
68854;SDS011;55859;55.710;12.464;2022-08-11T10:12:11;2.83;;;0.70;;
68854;SDS011;55859;55.710;12.464;2022-08-11T10:14:59;7.45;;;0.90;;
68854;SDS011;55859;55.710;12.464;2022-08-11T10:17:47;5.93;;;0.73;;
68854;SDS011;55859;55.710;12.464;2022-08-11T10:20:35;1.15;;;0.82;;
68854;SDS011;55859;55.710;12.464;2022-08-11T10:23:03;2.75;;;0.65;;
68854;SDS011;55859;55.710;12.464;2022-08-11T10:25:47;2.15;;;0.90;;
68854;SDS011;55859;55.710;12.464;2022-08-11T10:28:33;1.13;;;0.77;;
68854;SDS011;55859;55.710;12.464;2022-08-11T10:30:59;2.33;;;1.00;;
68854;SDS011;55859;55.710;12.464;2022-08-11T10:33:46;0.70;;;0.70;;
68854;SDS011;55859;55.710;12.464;2022-08-11T10:36:27;1.08;;;0.70;;
68854;SDS011;55859;55.710;12.464;2022-08-11T10:38:55;3.97;;;0.80;;
68854;SDS011;55859;55.710;12.464;2022-08-11T10:41:22;2.42;;;0.65;;
68854;SDS011;55859;55.710;12.464;2022-08-11T10:44:08;6.65;;;0.70;;
68854;SDS011;55859;55.710;12.464;2022-08-11T10:46:34;4.72;;;0.70;;
68854;SDS011;55859;55.710;12.464;2022-08-11T10:49:19;3.10;;;0.60;;
68854;SDS011;55859;55.710;12.464;2022-08-11T10:51:45;2.50;;;1.00;;
68854;SDS011;55859;55.710;12.464;2022-08-11T10:54:30;3.72;;;0.80;;
68854;SDS011;55859;55.710;12.464;2022-08-11T10:57:16;6.45;;;0.98;;
68854;SDS011;55859;55.710;12.464;2022-08-11T11:00:01;2.85;;;0.70;;
68854;SDS011;55859;55.710;12.464;2022-08-11T11:02:30;1.77;;;0.80;;
68854;SDS011;55859;55.710;12.464;2022-08-11T11:04:58;2.45;;;0.80;;
68854;SDS011;55859;55.710;12.464;2022-08-11T11:10:20;3.30;;;0.70;;
68854;SDS011;55859;55.710;12.464;2022-08-11T11:12:46;4.28;;;1.08;;
68854;SDS011;55859;55.710;12.464;2022-08-11T11:15:36;3.53;;;0.80;;
68854;SDS011;55859;55.710;12.464;2022-08-11T11:18:33;1.10;;;0.65;;
68854;SDS011;55859;55.710;12.464;2022-08-11T11:21:07;4.25;;;0.73;;
68854;SDS011;55859;55.710;12.464;2022-08-11T11:26:49;2.03;;;0.60;;
68854;SDS011;55859;55.710;12.464;2022-08-11T11:32:23;1.30;;;0.50;;
68854;SDS011;55859;55.710;12.464;2022-08-11T11:37:56;6.65;;;1.13;;
68854;SDS011;55859;55.710;12.464;2022-08-11T11:40:22;4.20;;;0.90;;
68854;SDS011;55859;55.710;12.464;2022-08-11T11:42:50;1.27;;;0.60;;
68854;SDS011;55859;55.710;12.464;2022-08-11T11:45:19;2.95;;;0.57;;
68854;SDS011;55859;55.710;12.464;2022-08-11T11:47:46;3.60;;;0.60;;
68854;SDS011;55859;55.710;12.464;2022-08-11T11:50:16;2.03;;;0.82;;
68854;SDS011;55859;55.710;12.464;2022-08-11T11:52:48;4.35;;;0.80;;
68854;SDS011;55859;55.710;12.464;2022-08-11T11:55:16;1.70;;;0.80;;
68854;SDS011;55859;55.710;12.464;2022-08-11T11:57:42;0.88;;;0.45;;
68854;SDS011;55859;55.710;12.464;2022-08-11T12:00:27;3.75;;;1.08;;
68854;SDS011;55859;55.710;12.464;2022-08-11T12:03:12;6.18;;;0.75;;
68854;SDS011;55859;55.710;12.464;2022-08-11T12:05:37;1.15;;;0.70;;
68854;SDS011;55859;55.710;12.464;2022-08-11T12:08:07;0.88;;;0.70;;
68854;SDS011;55859;55.710;12.464;2022-08-11T12:10:46;3.47;;;0.82;;
68854;SDS011;55859;55.710;12.464;2022-08-11T12:13:15;5.00;;;0.70;;
68854;SDS011;55859;55.710;12.464;2022-08-11T12:16:00;4.72;;;0.90;;
68854;SDS011;55859;55.710;12.464;2022-08-11T12:18:36;2.67;;;0.80;;
68854;SDS011;55859;55.710;12.464;2022-08-11T12:21:04;1.38;;;0.90;;
68854;SDS011;55859;55.710;12.464;2022-08-11T12:23:33;2.05;;;0.73;;
68854;SDS011;55859;55.710;12.464;2022-08-11T12:26:18;1.42;;;0.75;;
68854;SDS011;55859;55.710;12.464;2022-08-11T12:29:03;2.92;;;0.90;;
68854;SDS011;55859;55.710;12.464;2022-08-11T12:31:33;1.80;;;0.80;;
68854;SDS011;55859;55.710;12.464;2022-08-11T12:34:02;4.20;;;0.65;;
68854;SDS011;55859;55.710;12.464;2022-08-11T12:36:37;8.13;;;0.98;;
68854;SDS011;55859;55.710;12.464;2022-08-11T12:39:08;3.08;;;0.80;;
68854;SDS011;55859;55.710;12.464;2022-08-11T12:41:34;3.22;;;1.00;;
68854;SDS011;55859;55.710;12.464;2022-08-11T12:44:22;0.82;;;0.80;;
68854;SDS011;55859;55.710;12.464;2022-08-11T12:47:08;4.30;;;0.77;;
68854;SDS011;55859;55.710;12.464;2022-08-11T12:49:36;1.38;;;0.73;;
68854;SDS011;55859;55.710;12.464;2022-08-11T12:52:27;2.88;;;0.60;;
68854;SDS011;55859;55.710;12.464;2022-08-11T12:54:58;1.85;;;0.82;;
68854;SDS011;55859;55.710;12.464;2022-08-11T12:57:34;1.60;;;0.77;;
68854;SDS011;55859;55.710;12.464;2022-08-11T13:00:20;2.15;;;0.75;;
68854;SDS011;55859;55.710;12.464;2022-08-11T13:03:07;1.45;;;0.60;;
68854;SDS011;55859;55.710;12.464;2022-08-11T13:05:56;4.40;;;0.90;;
68854;SDS011;55859;55.710;12.464;2022-08-11T13:08:24;0.70;;;0.60;;
68854;SDS011;55859;55.710;12.464;2022-08-11T13:10:52;0.85;;;0.57;;
68854;SDS011;55859;55.710;12.464;2022-08-11T13:13:38;1.27;;;0.60;;
68854;SDS011;55859;55.710;12.464;2022-08-11T13:16:06;0.70;;;0.70;;
68854;SDS011;55859;55.710;12.464;2022-08-11T13:18:33;4.00;;;0.60;;
68854;SDS011;55859;55.710;12.464;2022-08-11T13:20:59;1.13;;;0.70;;
68854;SDS011;55859;55.710;12.464;2022-08-11T13:23:25;1.13;;;0.60;;
68854;SDS011;55859;55.710;12.464;2022-08-11T13:25:53;3.03;;;0.88;;
68854;SDS011;55859;55.710;12.464;2022-08-11T13:28:20;2.30;;;0.80;;
68854;SDS011;55859;55.710;12.464;2022-08-11T13:30:47;2.35;;;0.60;;
68854;SDS011;55859;55.710;12.464;2022-08-11T13:33:34;0.80;;;0.70;;
68854;SDS011;55859;55.710;12.464;2022-08-11T13:36:04;4.80;;;0.70;;
68854;SDS011;55859;55.710;12.464;2022-08-11T13:38:30;3.80;;;0.70;;
68854;SDS011;55859;55.710;12.464;2022-08-11T13:40:56;0.77;;;0.60;;
68854;SDS011;55859;55.710;12.464;2022-08-11T13:43:22;7.82;;;0.80;;
68854;SDS011;55859;55.710;12.464;2022-08-11T13:45:48;1.00;;;0.70;;
68854;SDS011;55859;55.710;12.464;2022-08-11T13:48:16;2.03;;;0.77;;
68854;SDS011;55859;55.710;12.464;2022-08-11T13:50:42;1.38;;;0.70;;
68854;SDS011;55859;55.710;12.464;2022-08-11T13:53:28;1.05;;;0.80;;
68854;SDS011;55859;55.710;12.464;2022-08-11T13:55:56;4.38;;;1.10;;
68854;SDS011;55859;55.710;12.464;2022-08-11T13:58:24;5.10;;;0.82;;
68854;SDS011;55859;55.710;12.464;2022-08-11T14:00:50;3.70;;;0.98;;
68854;SDS011;55859;55.710;12.464;2022-08-11T14:03:18;3.42;;;0.60;;
68854;SDS011;55859;55.710;12.464;2022-08-11T14:05:48;2.90;;;0.70;;
68854;SDS011;55859;55.710;12.464;2022-08-11T14:08:18;2.78;;;0.40;;
68854;SDS011;55859;55.710;12.464;2022-08-11T14:10:48;5.35;;;0.90;;
68854;SDS011;55859;55.710;12.464;2022-08-11T14:13:40;1.50;;;0.73;;
68854;SDS011;55859;55.710;12.464;2022-08-11T14:16:11;9.77;;;1.02;;
68854;SDS011;55859;55.710;12.464;2022-08-11T14:18:44;5.10;;;1.02;;
68854;SDS011;55859;55.710;12.464;2022-08-11T14:21:12;2.17;;;0.60;;
68854;SDS011;55859;55.710;12.464;2022-08-11T14:23:58;4.22;;;0.73;;
68854;SDS011;55859;55.710;12.464;2022-08-11T14:29:08;0.95;;;0.60;;
68854;SDS011;55859;55.710;12.464;2022-08-11T14:31:52;7.47;;;0.88;;
68854;SDS011;55859;55.710;12.464;2022-08-11T14:34:24;1.23;;;0.60;;
68854;SDS011;55859;55.710;12.464;2022-08-11T14:36:54;1.02;;;0.70;;
68854;SDS011;55859;55.710;12.464;2022-08-11T14:39:24;0.75;;;0.70;;
68854;SDS011;55859;55.710;12.464;2022-08-11T14:42:13;1.40;;;0.60;;
68854;SDS011;55859;55.710;12.464;2022-08-11T14:44:57;1.00;;;0.88;;
68854;SDS011;55859;55.710;12.464;2022-08-11T14:47:45;3.38;;;0.63;;
68854;SDS011;55859;55.710;12.464;2022-08-11T14:50:14;1.52;;;0.65;;
68854;SDS011;55859;55.710;12.464;2022-08-11T14:52:53;0.70;;;0.60;;
68854;SDS011;55859;55.710;12.464;2022-08-11T14:55:26;1.30;;;0.70;;
68854;SDS011;55859;55.710;12.464;2022-08-11T14:58:15;3.22;;;0.60;;
68854;SDS011;55859;55.710;12.464;2022-08-11T15:00:42;1.67;;;0.68;;
68854;SDS011;55859;55.710;12.464;2022-08-11T15:03:12;1.05;;;0.60;;
68854;SDS011;55859;55.710;12.464;2022-08-11T15:05:58;1.10;;;0.70;;
68854;SDS011;55859;55.710;12.464;2022-08-11T15:08:29;1.45;;;0.80;;
68854;SDS011;55859;55.710;12.464;2022-08-11T15:11:17;1.55;;;0.57;;
68854;SDS011;55859;55.710;12.464;2022-08-11T15:14:05;3.20;;;1.02;;
68854;SDS011;55859;55.710;12.464;2022-08-11T15:16:32;3.90;;;0.68;;
68854;SDS011;55859;55.710;12.464;2022-08-11T15:19:18;0.70;;;0.50;;
68854;SDS011;55859;55.710;12.464;2022-08-11T15:21:45;0.90;;;0.73;;
68854;SDS011;55859;55.710;12.464;2022-08-11T15:24:29;4.72;;;0.90;;
68854;SDS011;55859;55.710;12.464;2022-08-11T15:26:57;5.40;;;0.80;;
68854;SDS011;55859;55.710;12.464;2022-08-11T15:29:43;0.82;;;0.50;;
68854;SDS011;55859;55.710;12.464;2022-08-11T15:32:29;2.33;;;0.70;;
68854;SDS011;55859;55.710;12.464;2022-08-11T15:35:15;1.52;;;0.55;;
68854;SDS011;55859;55.710;12.464;2022-08-11T15:38:01;1.23;;;0.47;;
68854;SDS011;55859;55.710;12.464;2022-08-11T15:40:30;2.95;;;0.80;;
68854;SDS011;55859;55.710;12.464;2022-08-11T15:43:24;2.63;;;0.50;;
68854;SDS011;55859;55.710;12.464;2022-08-11T15:46:16;3.38;;;0.80;;
68854;SDS011;55859;55.710;12.464;2022-08-11T15:48:47;6.72;;;0.80;;
68854;SDS011;55859;55.710;12.464;2022-08-11T15:53:57;2.05;;;0.75;;
68854;SDS011;55859;55.710;12.464;2022-08-11T15:56:28;0.98;;;0.70;;
68854;SDS011;55859;55.710;12.464;2022-08-11T15:58:56;0.70;;;0.60;;
68854;SDS011;55859;55.710;12.464;2022-08-11T16:01:41;0.65;;;0.57;;
68854;SDS011;55859;55.710;12.464;2022-08-11T16:04:26;2.83;;;0.80;;
68854;SDS011;55859;55.710;12.464;2022-08-11T16:12:17;1.50;;;0.80;;
68854;SDS011;55859;55.710;12.464;2022-08-11T16:14:49;0.60;;;0.60;;
68854;SDS011;55859;55.710;12.464;2022-08-11T16:17:43;2.00;;;0.63;;
68854;SDS011;55859;55.710;12.464;2022-08-11T16:20:17;0.90;;;0.57;;
68854;SDS011;55859;55.710;12.464;2022-08-11T16:22:45;1.92;;;0.70;;
68854;SDS011;55859;55.710;12.464;2022-08-11T16:25:14;5.18;;;0.68;;
68854;SDS011;55859;55.710;12.464;2022-08-11T16:27:47;4.40;;;0.73;;
68854;SDS011;55859;55.710;12.464;2022-08-11T16:30:17;1.67;;;0.70;;
68854;SDS011;55859;55.710;12.464;2022-08-11T16:32:44;1.40;;;0.50;;
68854;SDS011;55859;55.710;12.464;2022-08-11T16:35:16;2.30;;;0.65;;
68854;SDS011;55859;55.710;12.464;2022-08-11T16:38:02;2.25;;;0.60;;
68854;SDS011;55859;55.710;12.464;2022-08-11T16:40:50;3.60;;;0.70;;
68854;SDS011;55859;55.710;12.464;2022-08-11T16:43:17;2.15;;;0.65;;
68854;SDS011;55859;55.710;12.464;2022-08-11T16:46:04;3.20;;;0.75;;
68854;SDS011;55859;55.710;12.464;2022-08-11T16:49:06;0.70;;;0.60;;
68854;SDS011;55859;55.710;12.464;2022-08-11T16:51:35;1.98;;;0.50;;
68854;SDS011;55859;55.710;12.464;2022-08-11T16:54:00;1.45;;;0.60;;
68854;SDS011;55859;55.710;12.464;2022-08-11T16:59:25;0.88;;;0.63;;
68854;SDS011;55859;55.710;12.464;2022-08-11T17:02:02;0.73;;;0.43;;
68854;SDS011;55859;55.710;12.464;2022-08-11T17:04:52;3.05;;;0.70;;
68854;SDS011;55859;55.710;12.464;2022-08-11T17:07:37;1.50;;;1.38;;
68854;SDS011;55859;55.710;12.464;2022-08-11T17:10:24;1.15;;;0.52;;
68854;SDS011;55859;55.710;12.464;2022-08-11T17:13:12;1.80;;;0.80;;
68854;SDS011;55859;55.710;12.464;2022-08-11T17:15:46;1.17;;;0.75;;
68854;SDS011;55859;55.710;12.464;2022-08-11T17:18:53;0.95;;;0.60;;
68854;SDS011;55859;55.710;12.464;2022-08-11T17:21:44;0.60;;;0.50;;
68854;SDS011;55859;55.710;12.464;2022-08-11T17:24:30;0.82;;;0.50;;
68854;SDS011;55859;55.710;12.464;2022-08-11T17:26:59;0.50;;;0.50;;
68854;SDS011;55859;55.710;12.464;2022-08-11T17:31:58;2.42;;;0.55;;
68854;SDS011;55859;55.710;12.464;2022-08-11T17:34:44;1.80;;;0.70;;
68854;SDS011;55859;55.710;12.464;2022-08-11T17:37:30;3.92;;;0.80;;
68854;SDS011;55859;55.710;12.464;2022-08-11T17:39:58;0.88;;;0.70;;
68854;SDS011;55859;55.710;12.464;2022-08-11T17:42:27;0.60;;;0.50;;
68854;SDS011;55859;55.710;12.464;2022-08-11T17:45:14;3.30;;;0.60;;
68854;SDS011;55859;55.710;12.464;2022-08-11T17:48:00;1.30;;;0.90;;
68854;SDS011;55859;55.710;12.464;2022-08-11T17:50:46;5.20;;;0.93;;
68854;SDS011;55859;55.710;12.464;2022-08-11T17:53:13;1.05;;;0.80;;
68854;SDS011;55859;55.710;12.464;2022-08-11T17:55:59;1.83;;;0.90;;
68854;SDS011;55859;55.710;12.464;2022-08-11T17:58:47;4.53;;;1.23;;
68854;SDS011;55859;55.710;12.464;2022-08-11T18:01:36;1.48;;;0.90;;
68854;SDS011;55859;55.710;12.464;2022-08-11T18:04:06;0.93;;;0.70;;
68854;SDS011;55859;55.710;12.464;2022-08-11T18:06:33;2.85;;;1.20;;
68854;SDS011;55859;55.710;12.464;2022-08-11T18:09:07;4.22;;;0.93;;
68854;SDS011;55859;55.710;12.464;2022-08-11T18:11:54;1.27;;;0.70;;
68854;SDS011;55859;55.710;12.464;2022-08-11T18:14:41;10.52;;;0.75;;
68854;SDS011;55859;55.710;12.464;2022-08-11T18:17:28;2.83;;;1.20;;
68854;SDS011;55859;55.710;12.464;2022-08-11T18:20:13;0.93;;;0.85;;
68854;SDS011;55859;55.710;12.464;2022-08-11T18:22:57;1.10;;;0.82;;
68854;SDS011;55859;55.710;12.464;2022-08-11T18:25:45;0.90;;;0.90;;
68854;SDS011;55859;55.710;12.464;2022-08-11T18:28:32;4.13;;;0.98;;
68854;SDS011;55859;55.710;12.464;2022-08-11T18:31:22;0.90;;;0.90;;
68854;SDS011;55859;55.710;12.464;2022-08-11T18:34:09;1.35;;;0.70;;
68854;SDS011;55859;55.710;12.464;2022-08-11T18:39:46;1.42;;;0.60;;
68854;SDS011;55859;55.710;12.464;2022-08-11T18:42:36;0.93;;;0.80;;
68854;SDS011;55859;55.710;12.464;2022-08-11T18:45:23;1.30;;;0.60;;
68854;SDS011;55859;55.710;12.464;2022-08-11T18:48:10;0.98;;;0.90;;
68854;SDS011;55859;55.710;12.464;2022-08-11T18:50:58;0.70;;;0.60;;
68854;SDS011;55859;55.710;12.464;2022-08-11T18:53:46;2.42;;;0.75;;
68854;SDS011;55859;55.710;12.464;2022-08-11T18:56:34;1.35;;;0.90;;
68854;SDS011;55859;55.710;12.464;2022-08-11T18:59:19;0.93;;;0.80;;
68854;SDS011;55859;55.710;12.464;2022-08-11T19:02:08;1.35;;;1.02;;
68854;SDS011;55859;55.710;12.464;2022-08-11T19:04:55;1.10;;;0.82;;